sensor_id;sensor_type;location;lat;lon;timestamp;temperature;humidity
10891;DHT22;5498;50.928;11.598;2022-10-23T00:02:14;12.70;94.10
10891;DHT22;5498;50.928;11.598;2022-10-23T00:05:16;12.70;94.00
10891;DHT22;5498;50.928;11.598;2022-10-23T00:08:21;12.70;94.10
10891;DHT22;5498;50.928;11.598;2022-10-23T00:11:25;12.60;93.90
10891;DHT22;5498;50.928;11.598;2022-10-23T00:14:28;12.60;94.00
10891;DHT22;5498;50.928;11.598;2022-10-23T00:17:30;12.90;94.00
10891;DHT22;5498;50.928;11.598;2022-10-23T00:20:34;12.50;93.90
10891;DHT22;5498;50.928;11.598;2022-10-23T00:23:37;12.50;93.90
10891;DHT22;5498;50.928;11.598;2022-10-23T00:26:40;12.40;94.00
10891;DHT22;5498;50.928;11.598;2022-10-23T00:29:43;12.40;94.40
10891;DHT22;5498;50.928;11.598;2022-10-23T00:32:45;12.40;94.10
10891;DHT22;5498;50.928;11.598;2022-10-23T00:35:47;12.40;94.00
10891;DHT22;5498;50.928;11.598;2022-10-23T00:38:50;12.30;94.00
10891;DHT22;5498;50.928;11.598;2022-10-23T00:41:52;12.30;94.10
10891;DHT22;5498;50.928;11.598;2022-10-23T00:45:20;12.30;94.10
10891;DHT22;5498;50.928;11.598;2022-10-23T00:48:23;12.30;94.30
10891;DHT22;5498;50.928;11.598;2022-10-23T00:51:29;12.20;94.30
10891;DHT22;5498;50.928;11.598;2022-10-23T00:54:38;12.20;94.30
10891;DHT22;5498;50.928;11.598;2022-10-23T00:57:44;12.20;94.40
10891;DHT22;5498;50.928;11.598;2022-10-23T01:00:50;12.20;94.40
10891;DHT22;5498;50.928;11.598;2022-10-23T01:03:52;12.20;94.40
10891;DHT22;5498;50.928;11.598;2022-10-23T01:07:00;12.20;94.30
10891;DHT22;5498;50.928;11.598;2022-10-23T01:10:10;12.20;94.50
10891;DHT22;5498;50.928;11.598;2022-10-23T01:13:22;12.20;94.50
10891;DHT22;5498;50.928;11.598;2022-10-23T01:16:36;12.20;94.50
10891;DHT22;5498;50.928;11.598;2022-10-23T01:19:50;12.10;94.50
10891;DHT22;5498;50.928;11.598;2022-10-23T01:23:21;12.00;94.70
10891;DHT22;5498;50.928;11.598;2022-10-23T01:26:59;12.00;94.70
10891;DHT22;5498;50.928;11.598;2022-10-23T01:30:26;12.00;94.80
10891;DHT22;5498;50.928;11.598;2022-10-23T01:33:33;12.10;94.80
10891;DHT22;5498;50.928;11.598;2022-10-23T01:36:42;12.00;94.70
10891;DHT22;5498;50.928;11.598;2022-10-23T01:39:51;12.00;94.60
10891;DHT22;5498;50.928;11.598;2022-10-23T01:43:00;12.00;94.70
10891;DHT22;5498;50.928;11.598;2022-10-23T01:46:10;12.00;94.70
10891;DHT22;5498;50.928;11.598;2022-10-23T01:49:14;12.00;94.70
10891;DHT22;5498;50.928;11.598;2022-10-23T01:52:19;12.00;94.60
10891;DHT22;5498;50.928;11.598;2022-10-23T01:55:23;12.00;94.50
10891;DHT22;5498;50.928;11.598;2022-10-23T01:58:27;11.90;94.50
10891;DHT22;5498;50.928;11.598;2022-10-23T02:01:33;11.90;94.40
10891;DHT22;5498;50.928;11.598;2022-10-23T02:04:38;11.90;94.50
10891;DHT22;5498;50.928;11.598;2022-10-23T02:07:42;11.90;94.60
10891;DHT22;5498;50.928;11.598;2022-10-23T02:10:49;11.90;94.50
10891;DHT22;5498;50.928;11.598;2022-10-23T02:14:00;11.90;94.50
10891;DHT22;5498;50.928;11.598;2022-10-23T02:17:10;11.80;94.60
10891;DHT22;5498;50.928;11.598;2022-10-23T02:20:20;12.00;94.70
10891;DHT22;5498;50.928;11.598;2022-10-23T02:23:27;11.80;94.60
10891;DHT22;5498;50.928;11.598;2022-10-23T02:26:34;11.80;94.60
10891;DHT22;5498;50.928;11.598;2022-10-23T02:29:43;11.70;94.50
10891;DHT22;5498;50.928;11.598;2022-10-23T02:32:51;11.70;94.60
10891;DHT22;5498;50.928;11.598;2022-10-23T02:35:54;11.70;94.60
10891;DHT22;5498;50.928;11.598;2022-10-23T02:38:57;11.60;94.60
10891;DHT22;5498;50.928;11.598;2022-10-23T02:42:07;11.60;94.50
10891;DHT22;5498;50.928;11.598;2022-10-23T02:45:18;11.50;94.80
10891;DHT22;5498;50.928;11.598;2022-10-23T02:48:31;11.70;94.90
10891;DHT22;5498;50.928;11.598;2022-10-23T02:51:44;11.50;94.90
10891;DHT22;5498;50.928;11.598;2022-10-23T02:55:04;11.60;95.00
10891;DHT22;5498;50.928;11.598;2022-10-23T02:58:18;11.50;94.90
10891;DHT22;5498;50.928;11.598;2022-10-23T03:01:25;11.40;94.90
10891;DHT22;5498;50.928;11.598;2022-10-23T03:04:30;11.40;95.00
10891;DHT22;5498;50.928;11.598;2022-10-23T03:07:33;11.40;94.90
10891;DHT22;5498;50.928;11.598;2022-10-23T03:10:36;11.40;95.00
10891;DHT22;5498;50.928;11.598;2022-10-23T03:13:38;11.40;95.00
10891;DHT22;5498;50.928;11.598;2022-10-23T03:16:40;11.40;94.80
10891;DHT22;5498;50.928;11.598;2022-10-23T03:19:43;11.80;95.00
10891;DHT22;5498;50.928;11.598;2022-10-23T03:22:45;11.30;94.80
10891;DHT22;5498;50.928;11.598;2022-10-23T03:25:47;11.30;94.70
10891;DHT22;5498;50.928;11.598;2022-10-23T03:28:49;11.30;94.80
10891;DHT22;5498;50.928;11.598;2022-10-23T03:31:51;11.20;94.60
10891;DHT22;5498;50.928;11.598;2022-10-23T03:34:56;11.10;94.90
10891;DHT22;5498;50.928;11.598;2022-10-23T03:37:58;11.10;95.00
10891;DHT22;5498;50.928;11.598;2022-10-23T03:41:00;11.10;95.00
10891;DHT22;5498;50.928;11.598;2022-10-23T03:44:02;11.10;95.10
10891;DHT22;5498;50.928;11.598;2022-10-23T03:47:04;11.10;95.10
10891;DHT22;5498;50.928;11.598;2022-10-23T03:50:09;11.10;95.00
10891;DHT22;5498;50.928;11.598;2022-10-23T03:53:11;11.10;94.90
10891;DHT22;5498;50.928;11.598;2022-10-23T03:56:13;11.10;94.70
10891;DHT22;5498;50.928;11.598;2022-10-23T03:59:15;11.10;94.70
10891;DHT22;5498;50.928;11.598;2022-10-23T04:02:18;11.20;94.80
10891;DHT22;5498;50.928;11.598;2022-10-23T04:05:21;11.00;94.80
10891;DHT22;5498;50.928;11.598;2022-10-23T04:08:23;11.00;95.10
10891;DHT22;5498;50.928;11.598;2022-10-23T04:11:26;11.00;94.90
10891;DHT22;5498;50.928;11.598;2022-10-23T04:14:28;10.80;95.00
10891;DHT22;5498;50.928;11.598;2022-10-23T04:17:30;10.70;95.30
10891;DHT22;5498;50.928;11.598;2022-10-23T04:20:33;10.70;95.40
10891;DHT22;5498;50.928;11.598;2022-10-23T04:23:35;10.60;95.40
10891;DHT22;5498;50.928;11.598;2022-10-23T04:26:37;10.60;95.60
10891;DHT22;5498;50.928;11.598;2022-10-23T04:29:39;11.10;95.50
10891;DHT22;5498;50.928;11.598;2022-10-23T04:32:41;10.60;95.50
10891;DHT22;5498;50.928;11.598;2022-10-23T04:35:45;10.70;95.40
10891;DHT22;5498;50.928;11.598;2022-10-23T04:38:47;10.70;95.30
10891;DHT22;5498;50.928;11.598;2022-10-23T04:41:49;10.80;95.40
10891;DHT22;5498;50.928;11.598;2022-10-23T04:44:51;10.80;95.40
10891;DHT22;5498;50.928;11.598;2022-10-23T04:47:53;10.80;95.30
10891;DHT22;5498;50.928;11.598;2022-10-23T04:50:58;10.80;95.20
10891;DHT22;5498;50.928;11.598;2022-10-23T04:54:02;10.80;95.20
10891;DHT22;5498;50.928;11.598;2022-10-23T04:57:04;10.80;95.20
10891;DHT22;5498;50.928;11.598;2022-10-23T05:00:08;11.10;95.20
10891;DHT22;5498;50.928;11.598;2022-10-23T05:03:12;10.80;95.20
10891;DHT22;5498;50.928;11.598;2022-10-23T05:06:16;10.70;95.10
10891;DHT22;5498;50.928;11.598;2022-10-23T05:09:18;10.70;95.10
10891;DHT22;5498;50.928;11.598;2022-10-23T05:12:21;10.70;95.00
10891;DHT22;5498;50.928;11.598;2022-10-23T05:15:25;10.70;95.10
10891;DHT22;5498;50.928;11.598;2022-10-23T05:18:31;10.70;95.00
10891;DHT22;5498;50.928;11.598;2022-10-23T05:21:37;10.80;95.20
10891;DHT22;5498;50.928;11.598;2022-10-23T05:24:40;10.60;95.30
10891;DHT22;5498;50.928;11.598;2022-10-23T05:27:42;10.60;95.20
10891;DHT22;5498;50.928;11.598;2022-10-23T05:30:44;11.00;95.40
10891;DHT22;5498;50.928;11.598;2022-10-23T05:33:47;10.50;95.30
10891;DHT22;5498;50.928;11.598;2022-10-23T05:36:51;10.50;95.20
10891;DHT22;5498;50.928;11.598;2022-10-23T05:39:53;10.50;95.10
10891;DHT22;5498;50.928;11.598;2022-10-23T05:42:55;10.50;95.10
10891;DHT22;5498;50.928;11.598;2022-10-23T05:45:58;10.40;95.00
10891;DHT22;5498;50.928;11.598;2022-10-23T05:49:00;10.30;95.30
10891;DHT22;5498;50.928;11.598;2022-10-23T05:52:04;10.30;95.50
10891;DHT22;5498;50.928;11.598;2022-10-23T05:55:06;10.30;95.70
10891;DHT22;5498;50.928;11.598;2022-10-23T05:58:08;10.30;95.90
10891;DHT22;5498;50.928;11.598;2022-10-23T06:01:12;10.30;95.80
10891;DHT22;5498;50.928;11.598;2022-10-23T06:04:15;10.30;96.20
10891;DHT22;5498;50.928;11.598;2022-10-23T06:07:22;10.30;95.70
10891;DHT22;5498;50.928;11.598;2022-10-23T06:10:25;10.80;95.90
10891;DHT22;5498;50.928;11.598;2022-10-23T06:13:27;10.30;95.60
10891;DHT22;5498;50.928;11.598;2022-10-23T06:16:29;10.30;95.40
10891;DHT22;5498;50.928;11.598;2022-10-23T06:19:31;10.40;95.30
10891;DHT22;5498;50.928;11.598;2022-10-23T06:22:35;10.40;95.40
10891;DHT22;5498;50.928;11.598;2022-10-23T06:25:37;10.40;95.40
10891;DHT22;5498;50.928;11.598;2022-10-23T06:28:39;10.40;95.30
10891;DHT22;5498;50.928;11.598;2022-10-23T06:31:42;10.40;95.30
10891;DHT22;5498;50.928;11.598;2022-10-23T06:34:44;10.70;95.30
10891;DHT22;5498;50.928;11.598;2022-10-23T06:37:48;10.40;95.20
10891;DHT22;5498;50.928;11.598;2022-10-23T06:40:51;10.40;95.30
10891;DHT22;5498;50.928;11.598;2022-10-23T06:43:53;10.40;95.20
10891;DHT22;5498;50.928;11.598;2022-10-23T06:46:55;10.40;95.10
10891;DHT22;5498;50.928;11.598;2022-10-23T06:49:57;10.40;95.10
10891;DHT22;5498;50.928;11.598;2022-10-23T06:53:00;10.90;95.30
10891;DHT22;5498;50.928;11.598;2022-10-23T06:56:05;10.40;95.20
10891;DHT22;5498;50.928;11.598;2022-10-23T06:59:07;10.40;95.40
10891;DHT22;5498;50.928;11.598;2022-10-23T07:02:10;10.50;95.30
10891;DHT22;5498;50.928;11.598;2022-10-23T07:05:12;10.60;95.20
10891;DHT22;5498;50.928;11.598;2022-10-23T07:08:15;10.50;95.20
10891;DHT22;5498;50.928;11.598;2022-10-23T07:11:18;10.70;95.20
10891;DHT22;5498;50.928;11.598;2022-10-23T07:14:20;10.60;95.10
10891;DHT22;5498;50.928;11.598;2022-10-23T07:17:22;10.60;95.10
10891;DHT22;5498;50.928;11.598;2022-10-23T07:20:24;10.60;95.00
10891;DHT22;5498;50.928;11.598;2022-10-23T07:23:27;10.60;95.00
10891;DHT22;5498;50.928;11.598;2022-10-23T07:26:29;10.60;94.90
10891;DHT22;5498;50.928;11.598;2022-10-23T07:29:32;10.70;95.00
10891;DHT22;5498;50.928;11.598;2022-10-23T07:32:34;10.70;95.00
10891;DHT22;5498;50.928;11.598;2022-10-23T07:35:38;10.80;94.90
10891;DHT22;5498;50.928;11.598;2022-10-23T07:38:41;10.80;95.00
10891;DHT22;5498;50.928;11.598;2022-10-23T07:41:44;10.90;94.90
10891;DHT22;5498;50.928;11.598;2022-10-23T07:44:47;11.00;94.70
10891;DHT22;5498;50.928;11.598;2022-10-23T07:47:49;11.10;94.60
10891;DHT22;5498;50.928;11.598;2022-10-23T07:50:52;11.20;94.60
10891;DHT22;5498;50.928;11.598;2022-10-23T07:53:56;11.20;94.60
10891;DHT22;5498;50.928;11.598;2022-10-23T07:56:58;11.40;94.50
10891;DHT22;5498;50.928;11.598;2022-10-23T08:00:00;11.50;94.50
10891;DHT22;5498;50.928;11.598;2022-10-23T08:03:02;11.50;94.20
10891;DHT22;5498;50.928;11.598;2022-10-23T08:06:05;11.60;94.20
10891;DHT22;5498;50.928;11.598;2022-10-23T08:09:08;11.70;94.30
10891;DHT22;5498;50.928;11.598;2022-10-23T08:12:10;11.80;94.20
10891;DHT22;5498;50.928;11.598;2022-10-23T08:15:12;11.90;94.10
10891;DHT22;5498;50.928;11.598;2022-10-23T08:18:14;12.00;94.00
10891;DHT22;5498;50.928;11.598;2022-10-23T08:21:17;12.10;94.30
10891;DHT22;5498;50.928;11.598;2022-10-23T08:24:20;12.20;94.10
10891;DHT22;5498;50.928;11.598;2022-10-23T08:27:22;12.30;93.80
10891;DHT22;5498;50.928;11.598;2022-10-23T08:30:25;12.40;93.80
10891;DHT22;5498;50.928;11.598;2022-10-23T08:33:27;12.50;93.90
10891;DHT22;5498;50.928;11.598;2022-10-23T08:36:29;12.70;93.50
10891;DHT22;5498;50.928;11.598;2022-10-23T08:39:32;12.80;93.40
10891;DHT22;5498;50.928;11.598;2022-10-23T08:42:36;12.80;93.30
10891;DHT22;5498;50.928;11.598;2022-10-23T08:45:43;12.80;93.40
10891;DHT22;5498;50.928;11.598;2022-10-23T08:48:48;12.90;93.30
10891;DHT22;5498;50.928;11.598;2022-10-23T08:51:54;13.10;93.30
10891;DHT22;5498;50.928;11.598;2022-10-23T08:55:05;12.90;93.30
10891;DHT22;5498;50.928;11.598;2022-10-23T08:58:19;12.90;93.40
10891;DHT22;5498;50.928;11.598;2022-10-23T09:01:35;13.00;93.40
10891;DHT22;5498;50.928;11.598;2022-10-23T09:04:38;13.10;93.40
10891;DHT22;5498;50.928;11.598;2022-10-23T09:07:49;13.30;93.40
10891;DHT22;5498;50.928;11.598;2022-10-23T09:11:04;13.50;93.50
10891;DHT22;5498;50.928;11.598;2022-10-23T09:14:28;13.70;93.20
10891;DHT22;5498;50.928;11.598;2022-10-23T09:17:38;13.90;92.90
10891;DHT22;5498;50.928;11.598;2022-10-23T09:20:43;14.10;92.80
10891;DHT22;5498;50.928;11.598;2022-10-23T09:23:47;14.20;92.70
10891;DHT22;5498;50.928;11.598;2022-10-23T09:26:52;14.70;92.50
10891;DHT22;5498;50.928;11.598;2022-10-23T09:29:55;14.60;92.60
10891;DHT22;5498;50.928;11.598;2022-10-23T09:32:59;14.80;92.30
10891;DHT22;5498;50.928;11.598;2022-10-23T09:36:05;15.00;92.30
10891;DHT22;5498;50.928;11.598;2022-10-23T09:39:23;15.30;92.20
10891;DHT22;5498;50.928;11.598;2022-10-23T09:42:29;15.60;91.90
10891;DHT22;5498;50.928;11.598;2022-10-23T09:45:33;15.80;91.50
10891;DHT22;5498;50.928;11.598;2022-10-23T09:48:35;16.10;91.60
10891;DHT22;5498;50.928;11.598;2022-10-23T09:51:37;16.30;91.30
10891;DHT22;5498;50.928;11.598;2022-10-23T09:54:45;16.60;91.10
10891;DHT22;5498;50.928;11.598;2022-10-23T09:57:51;16.90;91.10
10891;DHT22;5498;50.928;11.598;2022-10-23T10:00:54;17.20;90.90
10891;DHT22;5498;50.928;11.598;2022-10-23T10:03:57;17.30;90.50
10891;DHT22;5498;50.928;11.598;2022-10-23T10:07:02;17.60;90.20
10891;DHT22;5498;50.928;11.598;2022-10-23T10:10:09;17.80;90.20
10891;DHT22;5498;50.928;11.598;2022-10-23T10:13:30;18.10;88.80
10891;DHT22;5498;50.928;11.598;2022-10-23T10:16:47;18.20;87.30
10891;DHT22;5498;50.928;11.598;2022-10-23T10:20:06;18.40;87.30
10891;DHT22;5498;50.928;11.598;2022-10-23T10:23:24;18.50;86.70
10891;DHT22;5498;50.928;11.598;2022-10-23T10:26:36;18.50;86.20
10891;DHT22;5498;50.928;11.598;2022-10-23T10:29:56;18.50;85.80
10891;DHT22;5498;50.928;11.598;2022-10-23T10:33:11;18.70;86.00
10891;DHT22;5498;50.928;11.598;2022-10-23T10:36:33;18.50;86.00
10891;DHT22;5498;50.928;11.598;2022-10-23T10:39:48;18.40;86.00
10891;DHT22;5498;50.928;11.598;2022-10-23T10:43:10;18.30;86.10
10891;DHT22;5498;50.928;11.598;2022-10-23T10:46:25;18.30;86.70
10891;DHT22;5498;50.928;11.598;2022-10-23T10:49:34;18.30;86.50
10891;DHT22;5498;50.928;11.598;2022-10-23T10:52:46;18.40;86.60
10891;DHT22;5498;50.928;11.598;2022-10-23T10:55:54;18.50;86.60
10891;DHT22;5498;50.928;11.598;2022-10-23T10:59:00;18.60;86.40
10891;DHT22;5498;50.928;11.598;2022-10-23T11:02:22;18.60;86.00
10891;DHT22;5498;50.928;11.598;2022-10-23T11:05:30;18.70;86.00
10891;DHT22;5498;50.928;11.598;2022-10-23T11:08:35;18.90;85.70
10891;DHT22;5498;50.928;11.598;2022-10-23T11:11:39;18.90;85.40
10891;DHT22;5498;50.928;11.598;2022-10-23T11:14:41;19.30;85.60
10891;DHT22;5498;50.928;11.598;2022-10-23T11:17:48;19.50;85.70
10891;DHT22;5498;50.928;11.598;2022-10-23T11:21:02;19.20;85.20
10891;DHT22;5498;50.928;11.598;2022-10-23T11:28:15;19.40;84.70
10891;DHT22;5498;50.928;11.598;2022-10-23T11:31:27;19.40;84.50
10891;DHT22;5498;50.928;11.598;2022-10-23T11:34:47;19.60;84.60
10891;DHT22;5498;50.928;11.598;2022-10-23T11:38:03;19.60;84.60
10891;DHT22;5498;50.928;11.598;2022-10-23T11:41:18;19.70;84.40
10891;DHT22;5498;50.928;11.598;2022-10-23T11:44:37;19.70;84.20
10891;DHT22;5498;50.928;11.598;2022-10-23T11:47:42;19.70;84.30
10891;DHT22;5498;50.928;11.598;2022-10-23T11:50:54;19.70;84.00
10891;DHT22;5498;50.928;11.598;2022-10-23T11:54:18;19.70;83.70
10891;DHT22;5498;50.928;11.598;2022-10-23T11:57:24;19.70;84.10
10891;DHT22;5498;50.928;11.598;2022-10-23T12:00:29;20.00;83.90
10891;DHT22;5498;50.928;11.598;2022-10-23T12:03:41;19.80;84.00
10891;DHT22;5498;50.928;11.598;2022-10-23T12:06:53;20.00;84.10
10891;DHT22;5498;50.928;11.598;2022-10-23T12:09:59;19.80;83.80
10891;DHT22;5498;50.928;11.598;2022-10-23T12:16:35;19.90;83.10
10891;DHT22;5498;50.928;11.598;2022-10-23T12:19:46;20.10;83.50
10891;DHT22;5498;50.928;11.598;2022-10-23T12:23:25;19.90;81.40
10891;DHT22;5498;50.928;11.598;2022-10-23T12:26:46;19.90;81.40
10891;DHT22;5498;50.928;11.598;2022-10-23T12:30:02;19.90;80.80
10891;DHT22;5498;50.928;11.598;2022-10-23T12:33:20;19.90;80.70
10891;DHT22;5498;50.928;11.598;2022-10-23T12:36:41;19.90;80.50
10891;DHT22;5498;50.928;11.598;2022-10-23T12:39:53;19.90;77.50
10891;DHT22;5498;50.928;11.598;2022-10-23T12:42:57;20.30;78.00
10891;DHT22;5498;50.928;11.598;2022-10-23T12:46:02;19.90;78.00
10891;DHT22;5498;50.928;11.598;2022-10-23T12:49:13;19.90;78.60
10891;DHT22;5498;50.928;11.598;2022-10-23T12:52:18;19.90;78.50
10891;DHT22;5498;50.928;11.598;2022-10-23T12:55:24;19.90;78.60
10891;DHT22;5498;50.928;11.598;2022-10-23T12:58:29;19.90;78.00
10891;DHT22;5498;50.928;11.598;2022-10-23T13:01:33;20.20;77.70
10891;DHT22;5498;50.928;11.598;2022-10-23T13:04:35;20.00;77.20
10891;DHT22;5498;50.928;11.598;2022-10-23T13:07:42;20.00;77.30
10891;DHT22;5498;50.928;11.598;2022-10-23T13:10:47;20.40;76.40
10891;DHT22;5498;50.928;11.598;2022-10-23T13:13:50;20.40;77.00
10891;DHT22;5498;50.928;11.598;2022-10-23T13:16:58;20.00;76.20
10891;DHT22;5498;50.928;11.598;2022-10-23T13:20:20;20.00;76.50
10891;DHT22;5498;50.928;11.598;2022-10-23T13:23:28;20.00;75.50
10891;DHT22;5498;50.928;11.598;2022-10-23T13:26:34;20.00;75.60
10891;DHT22;5498;50.928;11.598;2022-10-23T13:29:42;20.00;75.60
10891;DHT22;5498;50.928;11.598;2022-10-23T13:32:44;20.00;74.90
10891;DHT22;5498;50.928;11.598;2022-10-23T13:35:54;20.10;74.00
10891;DHT22;5498;50.928;11.598;2022-10-23T13:39:02;20.00;74.10
10891;DHT22;5498;50.928;11.598;2022-10-23T13:42:13;20.00;72.70
10891;DHT22;5498;50.928;11.598;2022-10-23T13:45:19;20.10;72.20
10891;DHT22;5498;50.928;11.598;2022-10-23T13:48:22;20.00;72.50
10891;DHT22;5498;50.928;11.598;2022-10-23T13:51:26;20.20;72.70
10891;DHT22;5498;50.928;11.598;2022-10-23T13:54:28;19.90;73.40
10891;DHT22;5498;50.928;11.598;2022-10-23T13:57:32;19.90;72.60
10891;DHT22;5498;50.928;11.598;2022-10-23T14:00:34;19.90;72.70
10891;DHT22;5498;50.928;11.598;2022-10-23T14:03:36;19.80;72.80
10891;DHT22;5498;50.928;11.598;2022-10-23T14:06:38;19.90;72.00
10891;DHT22;5498;50.928;11.598;2022-10-23T14:09:41;19.80;72.80
10891;DHT22;5498;50.928;11.598;2022-10-23T14:12:45;19.80;72.90
10891;DHT22;5498;50.928;11.598;2022-10-23T14:15:52;19.80;73.20
10891;DHT22;5498;50.928;11.598;2022-10-23T14:18:57;19.80;73.60
10891;DHT22;5498;50.928;11.598;2022-10-23T14:21:59;20.20;74.30
10891;DHT22;5498;50.928;11.598;2022-10-23T14:25:01;19.80;73.70
10891;DHT22;5498;50.928;11.598;2022-10-23T14:28:04;20.10;74.50
10891;DHT22;5498;50.928;11.598;2022-10-23T14:31:08;19.80;74.30
10891;DHT22;5498;50.928;11.598;2022-10-23T14:34:11;19.80;75.00
10891;DHT22;5498;50.928;11.598;2022-10-23T14:37:15;19.80;75.00
10891;DHT22;5498;50.928;11.598;2022-10-23T14:40:17;20.10;75.60
10891;DHT22;5498;50.928;11.598;2022-10-23T14:43:22;20.00;75.70
10891;DHT22;5498;50.928;11.598;2022-10-23T14:46:24;20.00;76.50
10891;DHT22;5498;50.928;11.598;2022-10-23T14:49:27;19.70;76.40
10891;DHT22;5498;50.928;11.598;2022-10-23T14:52:30;19.70;77.00
10891;DHT22;5498;50.928;11.598;2022-10-23T14:55:32;19.70;76.80
10891;DHT22;5498;50.928;11.598;2022-10-23T14:58:36;19.60;77.00
10891;DHT22;5498;50.928;11.598;2022-10-23T15:01:40;19.70;77.30
10891;DHT22;5498;50.928;11.598;2022-10-23T15:04:43;19.60;78.00
10891;DHT22;5498;50.928;11.598;2022-10-23T15:07:49;19.90;78.10
10891;DHT22;5498;50.928;11.598;2022-10-23T15:10:51;19.50;77.80
10891;DHT22;5498;50.928;11.598;2022-10-23T15:13:55;19.70;78.70
10891;DHT22;5498;50.928;11.598;2022-10-23T15:16:58;19.60;79.20
10891;DHT22;5498;50.928;11.598;2022-10-23T15:20:00;19.30;79.20
10891;DHT22;5498;50.928;11.598;2022-10-23T15:23:02;19.30;79.30
10891;DHT22;5498;50.928;11.598;2022-10-23T15:26:07;19.60;78.80
10891;DHT22;5498;50.928;11.598;2022-10-23T15:29:29;19.50;79.30
10891;DHT22;5498;50.928;11.598;2022-10-23T15:35:22;19.20;78.50
10891;DHT22;5498;50.928;11.598;2022-10-23T15:43:07;19.20;78.20
10891;DHT22;5498;50.928;11.598;2022-10-23T16:18:24;18.60;81.80
10891;DHT22;5498;50.928;11.598;2022-10-23T16:21:30;18.40;78.80
10891;DHT22;5498;50.928;11.598;2022-10-23T16:24:35;18.70;82.20
10891;DHT22;5498;50.928;11.598;2022-10-23T16:27:39;18.30;81.60
10891;DHT22;5498;50.928;11.598;2022-10-23T16:30:42;18.30;81.80
10891;DHT22;5498;50.928;11.598;2022-10-23T16:33:45;18.20;82.60
10891;DHT22;5498;50.928;11.598;2022-10-23T16:36:49;18.30;83.40
10891;DHT22;5498;50.928;11.598;2022-10-23T16:39:51;18.10;83.50
10891;DHT22;5498;50.928;11.598;2022-10-23T16:42:55;17.90;83.90
10891;DHT22;5498;50.928;11.598;2022-10-23T16:46:02;17.90;84.40
10891;DHT22;5498;50.928;11.598;2022-10-23T16:49:05;17.80;85.50
10891;DHT22;5498;50.928;11.598;2022-10-23T16:52:10;17.70;85.20
10891;DHT22;5498;50.928;11.598;2022-10-23T16:55:13;17.60;85.40
10891;DHT22;5498;50.928;11.598;2022-10-23T16:58:15;17.90;86.20
10891;DHT22;5498;50.928;11.598;2022-10-23T17:01:20;17.60;84.20
10891;DHT22;5498;50.928;11.598;2022-10-23T17:04:23;17.60;85.90
10891;DHT22;5498;50.928;11.598;2022-10-23T17:07:26;17.30;85.10
10891;DHT22;5498;50.928;11.598;2022-10-23T17:10:28;17.50;86.00
10891;DHT22;5498;50.928;11.598;2022-10-23T17:13:31;17.10;87.00
10891;DHT22;5498;50.928;11.598;2022-10-23T17:16:35;17.10;87.50
10891;DHT22;5498;50.928;11.598;2022-10-23T17:19:39;17.20;88.30
10891;DHT22;5498;50.928;11.598;2022-10-23T17:22:43;17.00;88.20
10891;DHT22;5498;50.928;11.598;2022-10-23T17:25:45;17.00;88.60
10891;DHT22;5498;50.928;11.598;2022-10-23T17:28:49;16.90;88.20
10891;DHT22;5498;50.928;11.598;2022-10-23T17:31:51;16.90;87.50
10891;DHT22;5498;50.928;11.598;2022-10-23T17:34:53;16.80;87.50
10891;DHT22;5498;50.928;11.598;2022-10-23T17:37:58;16.80;88.30
10891;DHT22;5498;50.928;11.598;2022-10-23T17:41:01;16.90;88.10
10891;DHT22;5498;50.928;11.598;2022-10-23T17:44:03;16.90;87.70
10891;DHT22;5498;50.928;11.598;2022-10-23T17:47:05;17.00;88.10
10891;DHT22;5498;50.928;11.598;2022-10-23T17:50:08;17.00;86.70
10891;DHT22;5498;50.928;11.598;2022-10-23T17:53:13;17.10;86.40
10891;DHT22;5498;50.928;11.598;2022-10-23T17:56:17;17.10;86.30
10891;DHT22;5498;50.928;11.598;2022-10-23T17:59:22;17.10;86.10
10891;DHT22;5498;50.928;11.598;2022-10-23T18:02:24;17.10;86.00
10891;DHT22;5498;50.928;11.598;2022-10-23T18:05:26;17.10;85.80
10891;DHT22;5498;50.928;11.598;2022-10-23T18:08:29;17.40;86.20
10891;DHT22;5498;50.928;11.598;2022-10-23T18:11:33;17.10;85.70
10891;DHT22;5498;50.928;11.598;2022-10-23T18:14:36;17.20;85.10
10891;DHT22;5498;50.928;11.598;2022-10-23T18:17:38;17.60;84.80
10891;DHT22;5498;50.928;11.598;2022-10-23T18:20:40;17.60;84.80
10891;DHT22;5498;50.928;11.598;2022-10-23T18:23:44;17.30;84.70
10891;DHT22;5498;50.928;11.598;2022-10-23T18:26:46;17.40;85.20
10891;DHT22;5498;50.928;11.598;2022-10-23T18:29:48;17.80;85.40
10891;DHT22;5498;50.928;11.598;2022-10-23T18:32:50;17.30;84.30
10891;DHT22;5498;50.928;11.598;2022-10-23T18:35:52;17.30;85.20
10891;DHT22;5498;50.928;11.598;2022-10-23T18:38:56;17.30;84.50
10891;DHT22;5498;50.928;11.598;2022-10-23T18:41:58;17.30;84.40
10891;DHT22;5498;50.928;11.598;2022-10-23T18:45:01;17.40;83.50
10891;DHT22;5498;50.928;11.598;2022-10-23T18:48:05;17.40;83.70
10891;DHT22;5498;50.928;11.598;2022-10-23T18:51:12;17.40;83.70
10891;DHT22;5498;50.928;11.598;2022-10-23T18:54:19;17.40;83.50
10891;DHT22;5498;50.928;11.598;2022-10-23T18:57:22;17.60;82.90
10891;DHT22;5498;50.928;11.598;2022-10-23T19:00:24;17.90;82.60
10891;DHT22;5498;50.928;11.598;2022-10-23T19:03:26;17.50;82.20
10891;DHT22;5498;50.928;11.598;2022-10-23T19:06:28;17.50;82.10
10891;DHT22;5498;50.928;11.598;2022-10-23T19:09:32;17.90;81.40
10891;DHT22;5498;50.928;11.598;2022-10-23T19:12:35;17.50;81.70
10891;DHT22;5498;50.928;11.598;2022-10-23T19:15:37;17.50;82.20
10891;DHT22;5498;50.928;11.598;2022-10-23T19:18:43;17.50;82.70
10891;DHT22;5498;50.928;11.598;2022-10-23T19:21:48;17.40;83.50
10891;DHT22;5498;50.928;11.598;2022-10-23T19:24:53;17.70;84.60
10891;DHT22;5498;50.928;11.598;2022-10-23T19:27:59;17.30;85.20
10891;DHT22;5498;50.928;11.598;2022-10-23T19:31:03;17.30;85.70
10891;DHT22;5498;50.928;11.598;2022-10-23T19:34:07;17.30;86.00
10891;DHT22;5498;50.928;11.598;2022-10-23T19:37:09;17.20;86.40
10891;DHT22;5498;50.928;11.598;2022-10-23T19:40:13;17.10;86.60
10891;DHT22;5498;50.928;11.598;2022-10-23T19:43:15;17.10;86.80
10891;DHT22;5498;50.928;11.598;2022-10-23T19:46:17;17.10;87.10
10891;DHT22;5498;50.928;11.598;2022-10-23T19:49:19;17.00;87.30
10891;DHT22;5498;50.928;11.598;2022-10-23T19:52:23;17.00;87.70
10891;DHT22;5498;50.928;11.598;2022-10-23T19:55:26;17.00;88.00
10891;DHT22;5498;50.928;11.598;2022-10-23T19:58:28;16.90;88.40
10891;DHT22;5498;50.928;11.598;2022-10-23T20:01:30;16.60;88.40
10891;DHT22;5498;50.928;11.598;2022-10-23T20:04:33;17.10;89.00
10891;DHT22;5498;50.928;11.598;2022-10-23T20:07:36;16.80;89.00
10891;DHT22;5498;50.928;11.598;2022-10-23T20:10:41;16.80;89.30
10891;DHT22;5498;50.928;11.598;2022-10-23T20:13:43;16.70;89.50
10891;DHT22;5498;50.928;11.598;2022-10-23T20:16:46;16.70;89.30
10891;DHT22;5498;50.928;11.598;2022-10-23T20:19:48;16.70;89.10